sensor_id;sensor_type;location;lat;lon;timestamp;pressure;altitude;pressure_sealevel;temperature;humidity
10462;BME280;5278;42.656;23.374;2023-09-08T00:01:19;95153.81;;;21.66;74.93
10462;BME280;5278;42.656;23.374;2023-09-08T00:03:47;95149.44;;;21.60;74.91
10462;BME280;5278;42.656;23.374;2023-09-08T00:06:14;95151.50;;;21.58;75.20
10462;BME280;5278;42.656;23.374;2023-09-08T00:08:43;95131.16;;;21.46;76.00
10462;BME280;5278;42.656;23.374;2023-09-08T00:11:09;95129.28;;;21.47;76.09
10462;BME280;5278;42.656;23.374;2023-09-08T00:13:37;95138.63;;;21.50;76.40
10462;BME280;5278;42.656;23.374;2023-09-08T00:16:05;95145.66;;;21.56;76.10
10462;BME280;5278;42.656;23.374;2023-09-08T00:18:32;95136.69;;;21.57;75.76
10462;BME280;5278;42.656;23.374;2023-09-08T00:20:59;95127.72;;;21.46;75.18
10462;BME280;5278;42.656;23.374;2023-09-08T00:23:26;95139.44;;;21.50;75.06
10462;BME280;5278;42.656;23.374;2023-09-08T00:25:55;95132.84;;;21.29;73.67
10462;BME280;5278;42.656;23.374;2023-09-08T00:28:23;95133.06;;;21.16;74.61
10462;BME280;5278;42.656;23.374;2023-09-08T00:30:50;95133.78;;;20.93;74.42
10462;BME280;5278;42.656;23.374;2023-09-08T00:33:17;95135.06;;;20.91;73.95
10462;BME280;5278;42.656;23.374;2023-09-08T00:35:44;95098.91;;;20.73;74.09
10462;BME280;5278;42.656;23.374;2023-09-08T00:38:11;95121.47;;;20.87;73.95
10462;BME280;5278;42.656;23.374;2023-09-08T00:40:47;95139.75;;;20.89;73.67
10462;BME280;5278;42.656;23.374;2023-09-08T00:43:16;95133.63;;;20.77;73.35
10462;BME280;5278;42.656;23.374;2023-09-08T00:45:44;95134.06;;;20.74;72.11
10462;BME280;5278;42.656;23.374;2023-09-08T00:48:12;95131.78;;;20.77;72.48
10462;BME280;5278;42.656;23.374;2023-09-08T00:50:40;95138.09;;;20.76;72.58
10462;BME280;5278;42.656;23.374;2023-09-08T00:53:07;95139.13;;;20.75;71.90
10462;BME280;5278;42.656;23.374;2023-09-08T00:55:38;95131.66;;;20.72;71.61
10462;BME280;5278;42.656;23.374;2023-09-08T00:58:05;95136.50;;;20.75;71.70
10462;BME280;5278;42.656;23.374;2023-09-08T01:00:34;95132.19;;;20.62;72.24
10462;BME280;5278;42.656;23.374;2023-09-08T01:03:01;95129.31;;;20.64;72.24
10462;BME280;5278;42.656;23.374;2023-09-08T01:05:28;95124.03;;;20.64;72.32
10462;BME280;5278;42.656;23.374;2023-09-08T01:07:55;95119.16;;;20.49;72.16
10462;BME280;5278;42.656;23.374;2023-09-08T01:10:25;95139.47;;;20.67;72.13
10462;BME280;5278;42.656;23.374;2023-09-08T01:12:52;95120.59;;;20.63;72.39
10462;BME280;5278;42.656;23.374;2023-09-08T01:15:19;95127.16;;;20.73;72.33
10462;BME280;5278;42.656;23.374;2023-09-08T01:17:47;95127.41;;;20.71;72.44
10462;BME280;5278;42.656;23.374;2023-09-08T01:20:18;95138.66;;;20.67;72.67
10462;BME280;5278;42.656;23.374;2023-09-08T01:23:03;95135.41;;;20.65;72.80
10462;BME280;5278;42.656;23.374;2023-09-08T01:25:40;95133.44;;;20.60;73.03
10462;BME280;5278;42.656;23.374;2023-09-08T01:28:08;95130.88;;;20.53;73.78
10462;BME280;5278;42.656;23.374;2023-09-08T01:30:37;95130.31;;;20.51;74.85
10462;BME280;5278;42.656;23.374;2023-09-08T01:33:04;95133.09;;;20.56;75.81
10462;BME280;5278;42.656;23.374;2023-09-08T01:35:35;95092.81;;;20.31;75.62
10462;BME280;5278;42.656;23.374;2023-09-08T01:38:03;95122.53;;;20.56;75.18
10462;BME280;5278;42.656;23.374;2023-09-08T01:40:30;95122.53;;;20.56;75.26
10462;BME280;5278;42.656;23.374;2023-09-08T01:42:59;95119.28;;;20.54;75.70
10462;BME280;5278;42.656;23.374;2023-09-08T01:45:25;95117.81;;;20.58;75.94
10462;BME280;5278;42.656;23.374;2023-09-08T01:47:52;95119.88;;;20.56;76.33
10462;BME280;5278;42.656;23.374;2023-09-08T01:50:19;95118.84;;;20.57;76.37
10462;BME280;5278;42.656;23.374;2023-09-08T01:52:47;95119.88;;;20.56;76.15
10462;BME280;5278;42.656;23.374;2023-09-08T01:55:14;95120.91;;;20.55;76.14
10462;BME280;5278;42.656;23.374;2023-09-08T01:57:41;95122.41;;;20.51;76.68
10462;BME280;5278;42.656;23.374;2023-09-08T02:00:12;95119.50;;;20.53;76.79
10462;BME280;5278;42.656;23.374;2023-09-08T02:02:39;95117.69;;;20.53;77.06
10462;BME280;5278;42.656;23.374;2023-09-08T02:05:07;95118.56;;;20.47;77.49
10462;BME280;5278;42.656;23.374;2023-09-08T02:07:35;95116.59;;;20.43;78.20
10462;BME280;5278;42.656;23.374;2023-09-08T02:10:02;95117.88;;;20.40;78.93
10462;BME280;5278;42.656;23.374;2023-09-08T02:12:29;95117.50;;;20.37;79.51
10462;BME280;5278;42.656;23.374;2023-09-08T02:14:56;95087.50;;;20.13;80.15
10462;BME280;5278;42.656;23.374;2023-09-08T02:17:24;95107.38;;;20.34;80.39
10462;BME280;5278;42.656;23.374;2023-09-08T02:19:51;95103.06;;;20.21;81.30
10462;BME280;5278;42.656;23.374;2023-09-08T02:22:18;95102.81;;;20.23;81.11
10462;BME280;5278;42.656;23.374;2023-09-08T02:24:45;95086.41;;;20.20;81.67
10462;BME280;5278;42.656;23.374;2023-09-08T02:27:12;95089.25;;;20.19;82.17
10462;BME280;5278;42.656;23.374;2023-09-08T02:29:39;95093.50;;;20.20;82.15
10462;BME280;5278;42.656;23.374;2023-09-08T02:32:06;95092.03;;;20.24;82.15
10462;BME280;5278;42.656;23.374;2023-09-08T02:34:36;95076.81;;;20.08;82.57
10462;BME280;5278;42.656;23.374;2023-09-08T02:37:03;95091.06;;;20.07;83.41
10462;BME280;5278;42.656;23.374;2023-09-08T02:39:32;95082.19;;;20.01;83.66
10462;BME280;5278;42.656;23.374;2023-09-08T02:41:59;95094.34;;;20.02;83.89
10462;BME280;5278;42.656;23.374;2023-09-08T02:44:26;95080.72;;;20.05;84.05
10462;BME280;5278;42.656;23.374;2023-09-08T02:46:53;95094.72;;;20.06;84.04
10462;BME280;5278;42.656;23.374;2023-09-08T02:49:19;95091.72;;;20.02;84.41
10462;BME280;5278;42.656;23.374;2023-09-08T02:51:48;95081.03;;;19.97;84.68
10462;BME280;5278;42.656;23.374;2023-09-08T02:54:15;95101.31;;;19.97;84.87
10462;BME280;5278;42.656;23.374;2023-09-08T02:56:42;95093.97;;;19.99;85.02
10462;BME280;5278;42.656;23.374;2023-09-08T02:59:09;95088.28;;;20.02;85.29
10462;BME280;5278;42.656;23.374;2023-09-08T03:01:37;95087.47;;;20.01;85.20
10462;BME280;5278;42.656;23.374;2023-09-08T03:04:05;95085.19;;;20.05;85.29
10462;BME280;5278;42.656;23.374;2023-09-08T03:06:32;95072.44;;;20.02;85.16
10462;BME280;5278;42.656;23.374;2023-09-08T03:09:00;95073.31;;;19.96;85.72
10462;BME280;5278;42.656;23.374;2023-09-08T03:11:27;95079.63;;;19.95;85.93
10462;BME280;5278;42.656;23.374;2023-09-08T03:13:55;95082.69;;;19.92;86.20
10462;BME280;5278;42.656;23.374;2023-09-08T03:16:24;95076.47;;;19.86;86.57
10462;BME280;5278;42.656;23.374;2023-09-08T03:18:51;95077.50;;;19.85;86.90
10462;BME280;5278;42.656;23.374;2023-09-08T03:21:18;95085.84;;;19.82;87.55
10462;BME280;5278;42.656;23.374;2023-09-08T03:23:45;95086.50;;;19.77;87.88
10462;BME280;5278;42.656;23.374;2023-09-08T03:26:13;95053.16;;;19.47;88.37
10462;BME280;5278;42.656;23.374;2023-09-08T03:28:42;95031.44;;;19.26;88.75
10462;BME280;5278;42.656;23.374;2023-09-08T03:31:11;95021.09;;;19.07;89.31
10462;BME280;5278;42.656;23.374;2023-09-08T03:33:40;95091.59;;;19.54;89.89
10462;BME280;5278;42.656;23.374;2023-09-08T03:36:08;95095.25;;;19.53;90.17
10462;BME280;5278;42.656;23.374;2023-09-08T03:38:35;95088.81;;;19.49;90.09
10462;BME280;5278;42.656;23.374;2023-09-08T03:41:03;95099.81;;;19.46;90.64
10462;BME280;5278;42.656;23.374;2023-09-08T03:43:31;95097.53;;;19.50;90.66
10462;BME280;5278;42.656;23.374;2023-09-08T03:45:58;95098.34;;;19.50;90.84
10462;BME280;5278;42.656;23.374;2023-09-08T03:48:25;95092.63;;;19.53;90.84
10462;BME280;5278;42.656;23.374;2023-09-08T03:50:52;95084.34;;;19.50;90.95
10462;BME280;5278;42.656;23.374;2023-09-08T03:53:19;95091.25;;;19.51;90.89
10462;BME280;5278;42.656;23.374;2023-09-08T03:55:46;95082.75;;;19.49;90.68
10462;BME280;5278;42.656;23.374;2023-09-08T03:58:14;95079.28;;;19.48;90.61
10462;BME280;5278;42.656;23.374;2023-09-08T04:00:43;95082.31;;;19.52;90.32
10462;BME280;5278;42.656;23.374;2023-09-08T04:03:11;95091.47;;;19.49;90.44
10462;BME280;5278;42.656;23.374;2023-09-08T04:05:38;95092.88;;;19.52;90.07
10462;BME280;5278;42.656;23.374;2023-09-08T04:08:05;95095.25;;;19.53;90.04
10462;BME280;5278;42.656;23.374;2023-09-08T04:10:33;95083.69;;;19.54;89.89
10462;BME280;5278;42.656;23.374;2023-09-08T04:13:00;95091.19;;;19.57;89.63
10462;BME280;5278;42.656;23.374;2023-09-08T04:15:26;95089.72;;;19.61;89.42
10462;BME280;5278;42.656;23.374;2023-09-08T04:17:55;95085.31;;;19.55;89.58
10462;BME280;5278;42.656;23.374;2023-09-08T04:20:22;95084.50;;;19.55;89.81
10462;BME280;5278;42.656;23.374;2023-09-08T04:22:49;95085.69;;;19.59;89.58
10462;BME280;5278;42.656;23.374;2023-09-08T04:25:17;95109.41;;;19.59;89.27
10462;BME280;5278;42.656;23.374;2023-09-08T04:27:44;95102.03;;;19.67;88.90
10462;BME280;5278;42.656;23.374;2023-09-08T04:30:12;95096.00;;;19.60;89.05
10462;BME280;5278;42.656;23.374;2023-09-08T04:32:39;95103.72;;;19.62;88.93
10462;BME280;5278;42.656;23.374;2023-09-08T04:35:08;95099.63;;;19.66;88.55
10462;BME280;5278;42.656;23.374;2023-09-08T04:37:35;95092.66;;;19.71;88.37
10462;BME280;5278;42.656;23.374;2023-09-08T04:40:05;95102.84;;;19.86;87.53
10462;BME280;5278;42.656;23.374;2023-09-08T04:42:33;95105.69;;;20.03;86.98
10462;BME280;5278;42.656;23.374;2023-09-08T04:44:59;95092.38;;;20.28;86.04
10462;BME280;5278;42.656;23.374;2023-09-08T04:47:26;95099.31;;;20.58;84.47
10462;BME280;5278;42.656;23.374;2023-09-08T04:49:53;95093.22;;;20.88;82.33
10462;BME280;5278;42.656;23.374;2023-09-08T04:52:22;95099.41;;;21.23;80.28
10462;BME280;5278;42.656;23.374;2023-09-08T04:54:49;95093.09;;;21.47;78.16
10462;BME280;5278;42.656;23.374;2023-09-08T04:57:16;95098.94;;;21.73;77.19
10462;BME280;5278;42.656;23.374;2023-09-08T04:59:43;95097.66;;;21.99;75.89
10462;BME280;5278;42.656;23.374;2023-09-08T05:02:10;95098.22;;;22.12;74.45
10462;BME280;5278;42.656;23.374;2023-09-08T05:04:37;95087.94;;;22.27;73.33
10462;BME280;5278;42.656;23.374;2023-09-08T05:07:03;95099.59;;;22.55;71.52
10462;BME280;5278;42.656;23.374;2023-09-08T05:09:32;95106.72;;;22.83;70.29
10462;BME280;5278;42.656;23.374;2023-09-08T05:11:59;95098.81;;;22.99;69.03
10462;BME280;5278;42.656;23.374;2023-09-08T05:14:26;95103.00;;;23.12;67.38
10462;BME280;5278;42.656;23.374;2023-09-08T05:16:53;95100.66;;;23.32;66.65
10462;BME280;5278;42.656;23.374;2023-09-08T05:19:21;95098.66;;;23.39;65.77
10462;BME280;5278;42.656;23.374;2023-09-08T05:21:50;95089.13;;;23.55;65.19
10462;BME280;5278;42.656;23.374;2023-09-08T05:24:17;95103.19;;;23.94;64.28
10462;BME280;5278;42.656;23.374;2023-09-08T05:26:47;95079.31;;;24.16;62.36
10462;BME280;5278;42.656;23.374;2023-09-08T05:29:14;95104.41;;;24.47;61.70
10462;BME280;5278;42.656;23.374;2023-09-08T05:31:41;95100.06;;;24.62;60.42
10462;BME280;5278;42.656;23.374;2023-09-08T05:34:08;95092.97;;;24.95;59.58
10462;BME280;5278;42.656;23.374;2023-09-08T05:36:36;95092.19;;;25.31;58.29
10462;BME280;5278;42.656;23.374;2023-09-08T05:39:05;95092.97;;;25.58;57.15
10462;BME280;5278;42.656;23.374;2023-09-08T05:41:33;95092.38;;;25.88;55.90
10462;BME280;5278;42.656;23.374;2023-09-08T05:44:01;95091.28;;;26.41;57.13
10462;BME280;5278;42.656;23.374;2023-09-08T05:46:29;95096.25;;;26.90;53.79
10462;BME280;5278;42.656;23.374;2023-09-08T05:48:55;95102.75;;;27.50;51.62
10462;BME280;5278;42.656;23.374;2023-09-08T05:51:22;95116.81;;;27.91;50.40
10462;BME280;5278;42.656;23.374;2023-09-08T05:53:49;95106.63;;;28.23;49.06
10462;BME280;5278;42.656;23.374;2023-09-08T05:56:18;95104.56;;;28.64;45.98
10462;BME280;5278;42.656;23.374;2023-09-08T05:58:45;95108.41;;;29.02;44.61
10462;BME280;5278;42.656;23.374;2023-09-08T06:01:14;95104.41;;;29.38;44.59
10462;BME280;5278;42.656;23.374;2023-09-08T06:03:43;95092.00;;;29.76;43.24
10462;BME280;5278;42.656;23.374;2023-09-08T06:06:10;95101.75;;;29.96;40.71
10462;BME280;5278;42.656;23.374;2023-09-08T06:08:37;95092.38;;;29.99;41.28
10462;BME280;5278;42.656;23.374;2023-09-08T06:11:02;95096.28;;;30.06;41.69
10462;BME280;5278;42.656;23.374;2023-09-08T06:13:29;95086.88;;;30.32;40.12
10462;BME280;5278;42.656;23.374;2023-09-08T06:15:56;95101.97;;;30.52;39.67
10462;BME280;5278;42.656;23.374;2023-09-08T06:18:27;95105.97;;;30.73;39.05
10462;BME280;5278;42.656;23.374;2023-09-08T06:20:54;95098.88;;;30.83;37.98
10462;BME280;5278;42.656;23.374;2023-09-08T06:23:21;95101.72;;;31.10;37.25
10462;BME280;5278;42.656;23.374;2023-09-08T06:25:48;95120.38;;;31.20;36.32
10462;BME280;5278;42.656;23.374;2023-09-08T06:28:15;95033.56;;;30.50;34.59
10462;BME280;5278;42.656;23.374;2023-09-08T06:30:42;95115.97;;;30.44;33.89
10462;BME280;5278;42.656;23.374;2023-09-08T06:33:09;95117.69;;;30.11;38.13
10462;BME280;5278;42.656;23.374;2023-09-08T06:35:37;95129.72;;;30.14;37.37
10462;BME280;5278;42.656;23.374;2023-09-08T06:38:04;95092.44;;;29.88;38.27
10462;BME280;5278;42.656;23.374;2023-09-08T06:40:31;95118.72;;;30.15;35.56
10462;BME280;5278;42.656;23.374;2023-09-08T06:42:58;95124.19;;;30.29;35.33
10462;BME280;5278;42.656;23.374;2023-09-08T06:45:27;95127.59;;;30.63;34.79
10462;BME280;5278;42.656;23.374;2023-09-08T06:47:54;95118.38;;;30.46;34.79
10462;BME280;5278;42.656;23.374;2023-09-08T06:50:21;95110.59;;;30.20;35.70
10462;BME280;5278;42.656;23.374;2023-09-08T06:52:50;95118.88;;;30.24;35.49
10462;BME280;5278;42.656;23.374;2023-09-08T06:55:17;95120.84;;;30.42;34.48
10462;BME280;5278;42.656;23.374;2023-09-08T06:57:46;95040.63;;;29.98;33.56
10462;BME280;5278;42.656;23.374;2023-09-08T07:00:14;95127.00;;;30.66;32.90
10462;BME280;5278;42.656;23.374;2023-09-08T07:02:42;95128.28;;;30.69;32.65
10462;BME280;5278;42.656;23.374;2023-09-08T07:05:10;95116.81;;;30.87;32.92
10462;BME280;5278;42.656;23.374;2023-09-08T07:07:43;95126.53;;;31.39;32.30
10462;BME280;5278;42.656;23.374;2023-09-08T07:10:16;95116.28;;;31.92;31.11
10462;BME280;5278;42.656;23.374;2023-09-08T07:12:43;95112.97;;;31.82;30.93
10462;BME280;5278;42.656;23.374;2023-09-08T07:15:10;95130.81;;;32.05;31.00
10462;BME280;5278;42.656;23.374;2023-09-08T07:17:38;95127.56;;;31.76;30.39
10462;BME280;5278;42.656;23.374;2023-09-08T07:20:06;95126.53;;;31.58;30.77
10462;BME280;5278;42.656;23.374;2023-09-08T07:22:33;95117.84;;;31.93;30.49
10462;BME280;5278;42.656;23.374;2023-09-08T07:25:00;95127.66;;;32.03;30.16
10462;BME280;5278;42.656;23.374;2023-09-08T07:27:28;95125.44;;;31.91;30.11
10462;BME280;5278;42.656;23.374;2023-09-08T07:29:55;95106.44;;;32.29;29.83
10462;BME280;5278;42.656;23.374;2023-09-08T07:32:24;95120.09;;;32.73;29.11
10462;BME280;5278;42.656;23.374;2023-09-08T07:34:51;95126.75;;;33.39;28.36
10462;BME280;5278;42.656;23.374;2023-09-08T07:37:21;95117.00;;;33.29;27.92
10462;BME280;5278;42.656;23.374;2023-09-08T07:39:49;95105.44;;;33.15;28.12
10462;BME280;5278;42.656;23.374;2023-09-08T07:42:16;95131.59;;;33.28;28.09
10462;BME280;5278;42.656;23.374;2023-09-08T07:44:44;95111.16;;;33.27;28.37
10462;BME280;5278;42.656;23.374;2023-09-08T07:47:11;95112.78;;;33.01;28.34
10462;BME280;5278;42.656;23.374;2023-09-08T07:49:38;95099.47;;;33.18;28.60
10462;BME280;5278;42.656;23.374;2023-09-08T07:52:05;95112.13;;;33.76;27.30
10462;BME280;5278;42.656;23.374;2023-09-08T07:54:34;95099.25;;;33.73;27.47
10462;BME280;5278;42.656;23.374;2023-09-08T07:57:02;95096.19;;;33.21;27.86
10462;BME280;5278;42.656;23.374;2023-09-08T07:59:29;95106.25;;;33.74;27.56
10462;BME280;5278;42.656;23.374;2023-09-08T08:01:57;95099.75;;;34.37;27.52
10462;BME280;5278;42.656;23.374;2023-09-08T08:04:24;95101.47;;;34.33;26.87
10462;BME280;5278;42.656;23.374;2023-09-08T08:06:51;95104.69;;;34.91;25.02
10462;BME280;5278;42.656;23.374;2023-09-08T08:09:18;95098.66;;;35.37;24.50
10462;BME280;5278;42.656;23.374;2023-09-08T08:11:45;95088.66;;;36.19;23.48
10462;BME280;5278;42.656;23.374;2023-09-08T08:14:12;95090.41;;;36.82;23.24
10462;BME280;5278;42.656;23.374;2023-09-08T08:16:39;95069.06;;;35.50;24.67
10462;BME280;5278;42.656;23.374;2023-09-08T08:19:08;95109.25;;;34.82;25.84
10462;BME280;5278;42.656;23.374;2023-09-08T08:21:36;95103.44;;;34.58;25.24
10462;BME280;5278;42.656;23.374;2023-09-08T08:24:05;95095.47;;;34.44;26.31
10462;BME280;5278;42.656;23.374;2023-09-08T08:26:32;95097.78;;;34.68;25.32
10462;BME280;5278;42.656;23.374;2023-09-08T08:28:58;95073.69;;;35.15;24.69
10462;BME280;5278;42.656;23.374;2023-09-08T08:31:29;95073.47;;;36.35;23.38
10462;BME280;5278;42.656;23.374;2023-09-08T08:33:56;95080.19;;;37.50;22.16
10462;BME280;5278;42.656;23.374;2023-09-08T08:36:27;95104.69;;;37.95;21.18
10462;BME280;5278;42.656;23.374;2023-09-08T08:38:54;95089.03;;;37.92;21.48
10462;BME280;5278;42.656;23.374;2023-09-08T08:41:21;95073.00;;;37.33;22.48
10462;BME280;5278;42.656;23.374;2023-09-08T08:43:48;95089.50;;;37.94;21.33
10462;BME280;5278;42.656;23.374;2023-09-08T08:46:17;95075.41;;;38.13;21.12
10462;BME280;5278;42.656;23.374;2023-09-08T08:48:46;95075.09;;;38.39;20.84
10462;BME280;5278;42.656;23.374;2023-09-08T08:51:15;95076.00;;;39.31;20.14
10462;BME280;5278;42.656;23.374;2023-09-08T08:53:45;95081.63;;;38.86;20.16
10462;BME280;5278;42.656;23.374;2023-09-08T08:56:12;95080.69;;;38.54;20.15
10462;BME280;5278;42.656;23.374;2023-09-08T08:58:40;95078.22;;;37.59;21.06
10462;BME280;5278;42.656;23.374;2023-09-08T09:01:10;95074.97;;;37.78;21.39
10462;BME280;5278;42.656;23.374;2023-09-08T09:03:40;95077.41;;;36.76;21.63
10462;BME280;5278;42.656;23.374;2023-09-08T09:06:10;95083.13;;;36.15;22.27
10462;BME280;5278;42.656;23.374;2023-09-08T09:08:38;95083.81;;;35.87;23.40
10462;BME280;5278;42.656;23.374;2023-09-08T09:11:08;95083.06;;;36.24;22.95
10462;BME280;5278;42.656;23.374;2023-09-08T09:13:34;95077.97;;;34.98;24.08
10462;BME280;5278;42.656;23.374;2023-09-08T09:16:01;95079.69;;;34.21;25.33
10462;BME280;5278;42.656;23.374;2023-09-08T09:18:29;95082.22;;;33.42;26.59
10462;BME280;5278;42.656;23.374;2023-09-08T09:20:59;95096.91;;;33.36;26.11
10462;BME280;5278;42.656;23.374;2023-09-08T09:23:27;95069.72;;;33.99;25.51
10462;BME280;5278;42.656;23.374;2023-09-08T09:25:54;95068.91;;;35.12;24.43
10462;BME280;5278;42.656;23.374;2023-09-08T09:28:24;95073.38;;;35.33;23.74
10462;BME280;5278;42.656;23.374;2023-09-08T09:30:52;95080.75;;;34.59;24.87
10462;BME280;5278;42.656;23.374;2023-09-08T09:33:20;95078.53;;;33.60;25.98
10462;BME280;5278;42.656;23.374;2023-09-08T09:35:49;95063.16;;;33.16;26.46
10462;BME280;5278;42.656;23.374;2023-09-08T09:38:15;95069.75;;;32.74;27.30
10462;BME280;5278;42.656;23.374;2023-09-08T09:40:44;95069.78;;;32.19;28.09
10462;BME280;5278;42.656;23.374;2023-09-08T09:43:13;95086.00;;;32.14;28.25
10462;BME280;5278;42.656;23.374;2023-09-08T09:45:43;95089.19;;;33.43;26.96
10462;BME280;5278;42.656;23.374;2023-09-08T09:48:10;95059.88;;;34.42;25.34
10462;BME280;5278;42.656;23.374;2023-09-08T09:50:38;95055.19;;;35.68;23.66
10462;BME280;5278;42.656;23.374;2023-09-08T09:53:08;95070.44;;;35.90;23.96
10462;BME280;5278;42.656;23.374;2023-09-08T09:55:37;94999.75;;;35.11;24.14
10462;BME280;5278;42.656;23.374;2023-09-08T09:58:06;95065.22;;;34.73;25.20
10462;BME280;5278;42.656;23.374;2023-09-08T10:00:34;95067.53;;;34.49;25.63
10462;BME280;5278;42.656;23.374;2023-09-08T10:03:04;95058.75;;;34.91;24.86
10462;BME280;5278;42.656;23.374;2023-09-08T10:05:31;95051.41;;;35.01;24.99
10462;BME280;5278;42.656;23.374;2023-09-08T10:07:58;95044.25;;;34.70;24.79
10462;BME280;5278;42.656;23.374;2023-09-08T10:10:27;95051.88;;;34.68;25.04
10462;BME280;5278;42.656;23.374;2023-09-08T10:13:02;95056.41;;;33.49;26.70
10462;BME280;5278;42.656;23.374;2023-09-08T10:15:31;95051.91;;;32.51;27.93
10462;BME280;5278;42.656;23.374;2023-09-08T10:17:59;95037.34;;;32.65;27.77
10462;BME280;5278;42.656;23.374;2023-09-08T10:20:33;95028.97;;;32.53;27.97
10462;BME280;5278;42.656;23.374;2023-09-08T10:23:06;95029.41;;;31.92;28.61
10462;BME280;5278;42.656;23.374;2023-09-08T10:25:39;95028.88;;;31.30;29.53
10462;BME280;5278;42.656;23.374;2023-09-08T10:28:09;95022.47;;;30.56;32.18
10462;BME280;5278;42.656;23.374;2023-09-08T10:30:36;95043.81;;;30.43;32.14
10462;BME280;5278;42.656;23.374;2023-09-08T10:33:04;95045.38;;;30.25;33.05
10462;BME280;5278;42.656;23.374;2023-09-08T10:35:34;95032.97;;;31.09;33.19
10462;BME280;5278;42.656;23.374;2023-09-08T10:38:24;95038.56;;;32.45;29.37
10462;BME280;5278;42.656;23.374;2023-09-08T10:40:51;95032.97;;;31.74;30.22
10462;BME280;5278;42.656;23.374;2023-09-08T10:43:19;95042.66;;;31.24;31.15
10462;BME280;5278;42.656;23.374;2023-09-08T10:45:46;95033.25;;;31.26;32.70
10462;BME280;5278;42.656;23.374;2023-09-08T10:48:14;95032.97;;;30.71;32.15
10462;BME280;5278;42.656;23.374;2023-09-08T10:50:43;95034.28;;;30.74;33.27
10462;BME280;5278;42.656;23.374;2023-09-08T10:53:13;95038.63;;;30.89;32.33
10462;BME280;5278;42.656;23.374;2023-09-08T10:55:42;95030.72;;;30.60;32.39
10462;BME280;5278;42.656;23.374;2023-09-08T10:58:17;95029.47;;;30.33;33.26
10462;BME280;5278;42.656;23.374;2023-09-08T11:00:51;95027.63;;;29.81;34.19
10462;BME280;5278;42.656;23.374;2023-09-08T11:03:43;95038.13;;;29.15;35.24
10462;BME280;5278;42.656;23.374;2023-09-08T11:06:12;95041.69;;;28.66;37.26
10462;BME280;5278;42.656;23.374;2023-09-08T11:08:41;95035.91;;;28.49;36.54
10462;BME280;5278;42.656;23.374;2023-09-08T11:11:10;95003.63;;;28.31;36.74
10462;BME280;5278;42.656;23.374;2023-09-08T11:13:37;94987.00;;;29.17;35.49
10462;BME280;5278;42.656;23.374;2023-09-08T11:16:05;95035.13;;;29.56;35.51
10462;BME280;5278;42.656;23.374;2023-09-08T11:18:34;95028.41;;;29.58;35.11
10462;BME280;5278;42.656;23.374;2023-09-08T11:21:06;95001.28;;;28.68;35.70
10462;BME280;5278;42.656;23.374;2023-09-08T11:23:35;95035.94;;;28.44;36.83
10462;BME280;5278;42.656;23.374;2023-09-08T11:26:05;95025.66;;;28.12;37.69
10462;BME280;5278;42.656;23.374;2023-09-08T11:28:34;95032.66;;;27.93;38.52
10462;BME280;5278;42.656;23.374;2023-09-08T11:31:04;95030.50;;;27.90;38.54
10462;BME280;5278;42.656;23.374;2023-09-08T11:33:34;95030.03;;;27.78;38.59
10462;BME280;5278;42.656;23.374;2023-09-08T11:36:12;95011.84;;;27.75;38.33
10462;BME280;5278;42.656;23.374;2023-09-08T11:38:43;95029.50;;;28.89;36.44
10462;BME280;5278;42.656;23.374;2023-09-08T11:41:12;95015.16;;;29.43;35.79
10462;BME280;5278;42.656;23.374;2023-09-08T11:43:40;95023.31;;;29.33;35.70
10462;BME280;5278;42.656;23.374;2023-09-08T11:46:07;94998.41;;;29.56;35.50
10462;BME280;5278;42.656;23.374;2023-09-08T11:48:36;94992.84;;;29.76;35.03
10462;BME280;5278;42.656;23.374;2023-09-08T11:51:06;95000.25;;;29.84;35.05
10462;BME280;5278;42.656;23.374;2023-09-08T11:53:33;94994.59;;;30.10;34.17
10462;BME280;5278;42.656;23.374;2023-09-08T11:56:02;94990.75;;;29.97;34.49
10462;BME280;5278;42.656;23.374;2023-09-08T11:58:29;94999.91;;;30.57;33.29
10462;BME280;5278;42.656;23.374;2023-09-08T12:00:57;95013.56;;;30.37;33.20
10462;BME280;5278;42.656;23.374;2023-09-08T12:03:24;94992.16;;;29.89;34.91
10462;BME280;5278;42.656;23.374;2023-09-08T12:05:52;94993.47;;;29.68;34.79
10462;BME280;5278;42.656;23.374;2023-09-08T12:08:19;94985.03;;;29.56;34.94
10462;BME280;5278;42.656;23.374;2023-09-08T12:10:46;94979.38;;;29.34;35.41
10462;BME280;5278;42.656;23.374;2023-09-08T12:13:20;94990.63;;;29.31;36.00
10462;BME280;5278;42.656;23.374;2023-09-08T12:15:47;94988.03;;;29.21;36.39
10462;BME280;5278;42.656;23.374;2023-09-08T12:18:15;94980.84;;;29.16;36.39
10462;BME280;5278;42.656;23.374;2023-09-08T12:20:42;94973.06;;;29.15;35.79
10462;BME280;5278;42.656;23.374;2023-09-08T12:23:16;94928.31;;;28.91;36.60
10462;BME280;5278;42.656;23.374;2023-09-08T12:25:45;94957.72;;;29.25;34.66
10462;BME280;5278;42.656;23.374;2023-09-08T12:28:11;94892.81;;;29.09;34.66
10462;BME280;5278;42.656;23.374;2023-09-08T12:30:40;94970.75;;;29.84;33.15
10462;BME280;5278;42.656;23.374;2023-09-08T12:33:07;94968.94;;;29.56;33.74
10462;BME280;5278;42.656;23.374;2023-09-08T12:35:35;94925.13;;;29.18;34.61
10462;BME280;5278;42.656;23.374;2023-09-08T12:38:04;94962.94;;;29.40;35.05
10462;BME280;5278;42.656;23.374;2023-09-08T12:40:34;94952.28;;;29.35;34.98
10462;BME280;5278;42.656;23.374;2023-09-08T12:43:01;94957.88;;;28.76;35.76
10462;BME280;5278;42.656;23.374;2023-09-08T12:45:29;94951.22;;;28.74;35.91
10462;BME280;5278;42.656;23.374;2023-09-08T12:47:58;94945.84;;;28.79;35.29
10462;BME280;5278;42.656;23.374;2023-09-08T12:50:27;94949.63;;;28.73;35.82
10462;BME280;5278;42.656;23.374;2023-09-08T12:52:54;94954.59;;;28.84;35.22
10462;BME280;5278;42.656;23.374;2023-09-08T12:55:21;94943.00;;;28.99;34.74
10462;BME280;5278;42.656;23.374;2023-09-08T12:57:48;94939.75;;;29.02;34.32
10462;BME280;5278;42.656;23.374;2023-09-08T13:00:15;94944.47;;;29.10;34.99
10462;BME280;5278;42.656;23.374;2023-09-08T13:02:44;94915.13;;;29.00;34.74
10462;BME280;5278;42.656;23.374;2023-09-08T13:05:12;94950.56;;;28.87;34.60